createdAt,value
2018-02-07T00:00:22.107Z,13.70
2018-02-07T00:02:57.137Z,13.27
2018-02-07T00:05:32.011Z,14.30
2018-02-07T00:08:07.018Z,13.20
2018-02-07T00:10:42.081Z,12.67
2018-02-07T00:13:17.193Z,12.50
2018-02-07T00:15:52.262Z,11.23
2018-02-07T00:18:26.990Z,12.77
2018-02-07T00:21:02.835Z,12.23
2018-02-07T00:23:38.046Z,12.80
2018-02-07T00:26:13.046Z,11.57
2018-02-07T00:28:48.457Z,11.87
2018-02-07T00:31:23.318Z,12.47
2018-02-07T00:33:58.429Z,11.37
2018-02-07T00:36:33.235Z,10.70
2018-02-07T00:39:08.084Z,13.00
2018-02-07T00:41:43.177Z,11.20
2018-02-07T00:44:18.120Z,12.37
2018-02-07T00:46:53.170Z,11.57
2018-02-07T00:49:27.550Z,11.10
2018-02-07T00:52:02.533Z,11.57
2018-02-07T00:54:38.081Z,11.55
2018-02-07T00:57:12.584Z,11.07
2018-02-07T00:59:47.514Z,11.77
2018-02-07T01:02:22.582Z,12.17
2018-02-07T01:04:57.444Z,10.87
2018-02-07T01:07:32.294Z,10.80
2018-02-07T01:10:07.652Z,13.23
2018-02-07T01:12:43.170Z,13.10
2018-02-07T01:15:18.305Z,16.43
2018-02-07T01:17:53.322Z,12.63
2018-02-07T01:20:28.237Z,12.55
2018-02-07T01:23:03.457Z,15.05
2018-02-07T01:25:38.308Z,18.53
2018-02-07T01:28:13.201Z,20.90
2018-02-07T01:30:48.461Z,17.80
2018-02-07T01:33:23.354Z,13.77
2018-02-07T01:35:58.337Z,15.15
2018-02-07T01:38:33.336Z,13.00
2018-02-07T01:41:08.285Z,12.50
2018-02-07T01:43:43.254Z,10.55
2018-02-07T01:46:18.391Z,11.43
2018-02-07T01:48:53.626Z,11.43
2018-02-07T01:51:28.405Z,10.50
2018-02-07T01:54:03.405Z,10.83
2018-02-07T01:56:38.593Z,14.07
2018-02-07T01:59:13.577Z,12.40
2018-02-07T02:01:48.618Z,11.67
2018-02-07T02:25:23.161Z,10.03
2018-02-07T02:27:58.422Z,10.80
2018-02-07T02:30:33.569Z,12.37
2018-02-07T02:33:08.410Z,10.52
2018-02-07T02:49:06.514Z,8.73
2018-02-07T02:51:41.457Z,10.07
2018-02-07T02:54:16.514Z,12.00
2018-02-07T02:56:51.517Z,11.03
2018-02-07T02:59:26.674Z,10.43
2018-02-07T03:02:02.003Z,10.73
2018-02-07T03:04:37.469Z,9.27
2018-02-07T03:07:12.733Z,10.00
2018-02-07T03:09:47.963Z,10.23
2018-02-07T03:12:22.672Z,9.90
2018-02-07T03:14:57.408Z,10.30
2018-02-07T03:17:32.594Z,8.83
2018-02-07T03:20:07.728Z,10.37
2018-02-07T03:22:42.775Z,9.57
2018-02-07T03:25:17.906Z,10.63
2018-02-07T03:27:53.030Z,11.40
2018-02-07T03:30:28.612Z,10.55
2018-02-07T03:33:03.882Z,10.30
2018-02-07T03:35:39.142Z,10.00
2018-02-07T03:38:14.509Z,10.77
2018-02-07T03:40:49.965Z,10.50
2018-02-07T03:43:25.558Z,9.30
2018-02-07T03:46:00.261Z,9.95
2018-02-07T03:48:35.582Z,10.25
2018-02-07T03:51:10.722Z,10.43
2018-02-07T03:53:47.094Z,10.82
2018-02-07T03:56:21.927Z,9.00
2018-02-07T03:58:56.629Z,10.23
2018-02-07T04:01:31.617Z,9.73
2018-02-07T04:04:06.702Z,9.53
2018-02-07T04:06:41.958Z,10.27
2018-02-07T04:09:16.758Z,9.63
2018-02-07T04:11:51.950Z,10.90
2018-02-07T04:14:27.103Z,9.43
2018-02-07T04:17:02.801Z,10.23
2018-02-07T04:19:37.738Z,9.57
2018-02-07T04:22:12.789Z,10.77
2018-02-07T04:24:47.748Z,10.60
2018-02-07T04:27:22.624Z,11.10
2018-02-07T04:29:58.084Z,9.93
2018-02-07T04:32:33.016Z,10.10
2018-02-07T04:35:07.885Z,10.00
2018-02-07T04:37:42.578Z,11.25
2018-02-07T04:40:17.783Z,9.70
2018-02-07T04:42:53.076Z,10.02
2018-02-07T04:45:28.208Z,11.43
2018-02-07T04:48:03.330Z,10.03
2018-02-07T04:50:37.976Z,10.70
2018-02-07T04:53:12.789Z,10.97
2018-02-07T04:55:47.736Z,10.80
2018-02-07T04:58:22.793Z,9.70
2018-02-07T05:00:58.314Z,10.67
2018-02-07T05:03:33.243Z,12.30
2018-02-07T05:06:08.895Z,10.68
2018-02-07T05:08:43.969Z,12.43
2018-02-07T05:11:19.302Z,10.20
2018-02-07T05:13:53.990Z,11.25
2018-02-07T05:16:28.955Z,11.97
2018-02-07T05:19:04.137Z,9.75
2018-02-07T05:21:39.012Z,11.17
2018-02-07T05:24:13.994Z,12.53
2018-02-07T05:26:48.995Z,10.10
2018-02-07T05:29:24.270Z,10.37
2018-02-07T05:31:59.986Z,10.30
2018-02-07T05:34:34.919Z,10.30
2018-02-07T05:37:09.993Z,10.33
2018-02-07T05:39:45.138Z,11.43
2018-02-07T05:42:20.108Z,11.10
2018-02-07T05:44:54.825Z,10.98
2018-02-07T05:47:29.935Z,9.83
2018-02-07T05:50:05.090Z,9.17
2018-02-07T05:52:40.299Z,9.87
2018-02-07T05:55:15.210Z,9.93
2018-02-07T05:57:50.530Z,11.20
2018-02-07T06:00:25.892Z,11.43
2018-02-07T06:03:01.149Z,10.35
2018-02-07T06:05:36.106Z,11.87
2018-02-07T06:08:10.570Z,12.60
2018-02-07T06:10:47.055Z,9.82
2018-02-07T06:13:22.099Z,11.13
2018-02-07T06:15:57.105Z,12.13
2018-02-07T06:18:32.448Z,10.47
2018-02-07T06:21:07.091Z,10.60
2018-02-07T06:23:41.490Z,11.67
2018-02-07T06:26:16.458Z,10.53
2018-02-07T06:28:51.478Z,9.60
2018-02-07T06:31:26.989Z,11.48
2018-02-07T06:34:02.466Z,16.50
2018-02-07T06:36:37.453Z,19.00
2018-02-07T06:39:12.229Z,21.33
2018-02-07T06:41:47.522Z,18.62
2018-02-07T06:44:22.212Z,20.80
2018-02-07T06:46:57.204Z,16.07
2018-02-07T06:49:32.265Z,13.10
2018-02-07T06:52:07.358Z,13.30
2018-02-07T06:54:42.549Z,12.97
2018-02-07T06:57:18.217Z,12.17
2018-02-07T06:59:53.326Z,10.88
2018-02-07T07:02:28.242Z,11.40
2018-02-07T07:05:03.524Z,11.20
2018-02-07T07:07:38.316Z,11.33
2018-02-07T07:10:13.218Z,12.00
2018-02-07T07:12:48.702Z,10.90
2018-02-07T07:15:23.306Z,11.30
2018-02-07T07:17:58.605Z,11.98
2018-02-07T07:20:33.261Z,11.17
2018-02-07T07:23:08.066Z,13.27
2018-02-07T07:25:43.209Z,11.27
2018-02-07T07:28:18.127Z,11.95
2018-02-07T07:30:52.934Z,12.07
2018-02-07T07:33:27.611Z,12.23
2018-02-07T07:36:02.697Z,13.90
2018-02-07T07:38:37.689Z,11.00
2018-02-07T07:41:12.673Z,12.07
2018-02-07T07:43:47.751Z,11.40
2018-02-07T07:46:22.482Z,12.70
2018-02-07T07:48:57.609Z,12.32
2018-02-07T07:51:32.609Z,12.23
2018-02-07T07:54:07.810Z,12.07
2018-02-07T07:56:43.349Z,12.10
2018-02-07T07:59:18.361Z,12.30
2018-02-07T08:01:53.703Z,12.57
2018-02-07T08:04:29.046Z,12.07
2018-02-07T08:07:04.291Z,15.03
2018-02-07T08:09:39.397Z,13.00
2018-02-07T08:12:14.564Z,12.17
2018-02-07T08:14:49.695Z,13.23
2018-02-07T08:17:24.505Z,14.27
2018-02-07T08:19:59.694Z,14.00
2018-02-07T08:22:34.435Z,18.40
2018-02-07T08:25:09.545Z,13.53
2018-02-07T08:27:44.477Z,14.40
2018-02-07T08:30:19.629Z,13.50
2018-02-07T08:32:54.774Z,14.77
2018-02-07T08:35:29.682Z,15.40
2018-02-07T08:38:04.705Z,13.57
2018-02-07T08:40:39.494Z,14.60
2018-02-07T08:43:14.695Z,13.13
2018-02-07T08:45:49.701Z,13.80
2018-02-07T08:48:24.835Z,14.67
2018-02-07T08:50:59.990Z,12.03
2018-02-07T08:53:35.115Z,13.70
2018-02-07T08:56:10.409Z,13.90
2018-02-07T08:58:45.568Z,12.13
2018-02-07T09:01:20.597Z,13.17
2018-02-07T09:03:55.602Z,14.05
2018-02-07T09:06:30.117Z,12.40
2018-02-07T09:09:04.958Z,13.23
2018-02-07T09:11:40.094Z,12.30
2018-02-07T09:14:15.597Z,13.60
2018-02-07T09:16:50.842Z,37.57
2018-02-07T09:19:25.601Z,14.33
2018-02-07T09:22:01.153Z,12.77
2018-02-07T09:24:36.058Z,14.27
2018-02-07T09:27:11.089Z,14.80
2018-02-07T09:29:46.135Z,19.50
2018-02-07T09:32:21.578Z,13.00
2018-02-07T09:34:56.982Z,17.00
2018-02-07T09:37:31.853Z,15.10
2018-02-07T09:40:06.818Z,12.53
2018-02-07T09:42:41.441Z,21.90
2018-02-07T09:45:16.849Z,15.63
2018-02-07T09:47:51.858Z,14.43
2018-02-07T09:50:26.706Z,11.50
2018-02-07T09:53:01.867Z,11.23
2018-02-07T09:55:36.879Z,12.13
2018-02-07T09:58:11.978Z,12.00
2018-02-07T10:00:48.006Z,12.15
2018-02-07T10:03:23.031Z,23.30
2018-02-07T10:05:58.002Z,10.50
2018-02-07T10:08:32.789Z,12.57
2018-02-07T10:11:07.635Z,12.05
2018-02-07T10:13:42.674Z,12.47
2018-02-07T10:16:17.198Z,11.20
2018-02-07T10:18:52.818Z,12.00
2018-02-07T10:21:27.846Z,12.07
2018-02-07T10:24:03.039Z,10.90
2018-02-07T10:26:38.058Z,11.27
2018-02-07T10:29:12.879Z,18.27
2018-02-07T10:31:48.230Z,10.97
2018-02-07T10:34:23.096Z,11.97
2018-02-07T10:36:58.007Z,11.82
2018-02-07T10:39:33.330Z,11.20
2018-02-07T10:42:08.803Z,15.80
2018-02-07T10:44:43.823Z,11.80
2018-02-07T10:47:19.059Z,14.67
2018-02-07T10:49:54.115Z,11.02
2018-02-07T10:52:29.331Z,10.70
2018-02-07T10:55:04.380Z,10.20
2018-02-07T10:57:39.205Z,10.67
2018-02-07T11:00:14.258Z,12.60
2018-02-07T11:02:49.351Z,11.10
2018-02-07T11:05:24.216Z,11.97
2018-02-07T11:07:59.523Z,10.30
2018-02-07T11:10:34.195Z,10.13
2018-02-07T11:13:08.641Z,11.15
2018-02-07T11:15:43.934Z,10.77
2018-02-07T11:18:18.979Z,9.47
2018-02-07T11:20:54.130Z,9.88
2018-02-07T11:23:28.734Z,10.35
2018-02-07T11:26:04.104Z,10.60
2018-02-07T11:28:38.895Z,10.13
2018-02-07T11:31:14.022Z,11.30
2018-02-07T11:33:49.310Z,11.73
2018-02-07T11:36:24.134Z,13.60
2018-02-07T11:38:59.473Z,11.90
2018-02-07T11:41:34.258Z,10.73
2018-02-07T11:44:09.090Z,12.77
2018-02-07T11:46:44.342Z,10.43
2018-02-07T11:49:19.434Z,10.37
2018-02-07T11:51:54.183Z,11.80
2018-02-07T11:54:29.493Z,10.97
2018-02-07T11:57:04.349Z,12.10
2018-02-07T11:59:39.959Z,11.00
2018-02-07T12:02:14.845Z,11.97
2018-02-07T12:04:50.122Z,10.60
2018-02-07T12:07:24.219Z,9.93
2018-02-07T12:09:59.555Z,10.57
2018-02-07T12:12:34.990Z,12.63
2018-02-07T12:15:10.089Z,11.40
2018-02-07T12:17:45.082Z,10.43
2018-02-07T12:20:20.164Z,10.43
2018-02-07T12:22:54.571Z,10.47
2018-02-07T12:25:29.998Z,11.32
2018-02-07T12:28:05.382Z,11.00
2018-02-07T12:30:40.310Z,11.10
2018-02-07T12:33:15.559Z,11.80
2018-02-07T12:35:50.467Z,10.70
2018-02-07T12:38:25.141Z,11.43
2018-02-07T12:41:00.382Z,11.53
2018-02-07T12:43:35.921Z,12.68
2018-02-07T12:46:10.611Z,11.10
2018-02-07T12:48:45.206Z,11.80
2018-02-07T12:51:20.101Z,11.80
2018-02-07T12:53:55.518Z,10.53
2018-02-07T12:56:30.274Z,11.63
2018-02-07T12:59:06.443Z,11.37
2018-02-07T13:01:41.213Z,11.03
2018-02-07T13:04:15.589Z,12.90
2018-02-07T13:06:50.588Z,11.77
2018-02-07T13:09:25.643Z,12.77
2018-02-07T13:12:00.574Z,11.40
2018-02-07T13:14:36.091Z,12.32
2018-02-07T13:17:11.258Z,13.50
2018-02-07T13:19:46.257Z,14.15
2018-02-07T13:22:20.810Z,14.17
2018-02-07T13:24:56.161Z,12.27
2018-02-07T13:27:31.326Z,13.50
2018-02-07T13:30:06.877Z,16.17
2018-02-07T13:32:41.549Z,14.50
2018-02-07T13:35:17.202Z,11.80
2018-02-07T13:37:52.442Z,14.90
2018-02-07T13:40:27.350Z,11.90
2018-02-07T13:43:02.421Z,12.05
2018-02-07T13:45:37.452Z,12.90
2018-02-07T13:48:12.782Z,14.40
2018-02-07T13:50:48.710Z,12.77
2018-02-07T13:53:23.898Z,12.23
2018-02-07T13:55:59.285Z,14.30
2018-02-07T13:58:34.502Z,16.77
2018-02-07T14:01:09.403Z,11.53
2018-02-07T14:03:44.222Z,13.43
2018-02-07T14:06:19.593Z,13.10
2018-02-07T14:08:54.723Z,12.70
2018-02-07T14:11:30.392Z,12.37
2018-02-07T14:14:05.583Z,11.98
2018-02-07T14:16:40.539Z,13.40
2018-02-07T14:19:15.446Z,22.13
2018-02-07T14:21:50.446Z,46.20
2018-02-07T14:24:25.350Z,13.65
2018-02-07T14:26:59.884Z,12.80
2018-02-07T14:29:35.249Z,13.90
2018-02-07T14:32:10.361Z,15.63
2018-02-07T14:34:45.574Z,16.03
2018-02-07T14:37:20.570Z,15.70
2018-02-07T14:39:55.546Z,15.40
2018-02-07T14:42:30.703Z,14.60
2018-02-07T14:45:05.719Z,14.70
2018-02-07T14:47:40.691Z,12.40
2018-02-07T14:50:15.816Z,12.40
2018-02-07T14:52:50.745Z,16.00
2018-02-07T14:55:25.954Z,12.47
2018-02-07T14:58:01.402Z,14.23
2018-02-07T15:00:36.547Z,13.97
2018-02-07T15:03:11.689Z,12.37
2018-02-07T15:05:46.690Z,12.47
2018-02-07T15:08:21.798Z,12.73
2018-02-07T15:10:56.886Z,12.90
2018-02-07T15:13:31.997Z,14.77
2018-02-07T15:16:07.139Z,18.00
2018-02-07T15:18:41.717Z,26.47
2018-02-07T15:21:16.519Z,28.97
2018-02-07T15:23:52.191Z,24.67
2018-02-07T15:26:26.736Z,15.03
2018-02-07T15:29:01.843Z,18.83
2018-02-07T15:31:37.435Z,35.38
2018-02-07T15:34:12.579Z,15.23
2018-02-07T15:36:48.849Z,17.23
2018-02-07T15:39:24.041Z,14.77
2018-02-07T15:41:59.114Z,15.77
2018-02-07T15:44:34.783Z,12.97
2018-02-07T15:47:09.802Z,15.20
2018-02-07T15:49:45.124Z,26.13
2018-02-07T15:52:21.613Z,15.80
2018-02-07T15:54:56.589Z,15.77
2018-02-07T15:57:31.637Z,12.97
2018-02-07T16:00:06.706Z,11.90
2018-02-07T16:02:40.853Z,17.40
2018-02-07T16:05:15.331Z,16.53
2018-02-07T16:07:50.062Z,22.60
2018-02-07T16:10:24.777Z,19.67
2018-02-07T16:13:00.069Z,34.23
2018-02-07T16:15:34.952Z,21.23
2018-02-07T16:18:09.715Z,21.70
2018-02-07T16:20:44.113Z,16.90
2018-02-07T16:23:18.848Z,13.80
2018-02-07T16:25:53.963Z,21.80
2018-02-07T16:28:28.629Z,21.55
2018-02-07T16:31:03.056Z,23.10
2018-02-07T16:33:37.802Z,16.40
2018-02-07T16:36:12.690Z,22.30
2018-02-07T16:38:49.054Z,14.60
2018-02-07T16:41:23.880Z,13.80
2018-02-07T16:43:59.109Z,16.70
2018-02-07T16:46:35.003Z,15.50
2018-02-07T16:49:09.814Z,15.63
2018-02-07T16:51:45.039Z,17.37
2018-02-07T16:54:20.234Z,15.30
2018-02-07T16:56:55.874Z,11.18
2018-02-07T16:59:30.897Z,10.70
2018-02-07T17:02:05.946Z,10.33
2018-02-07T17:04:41.043Z,10.07
2018-02-07T17:07:16.409Z,10.73
2018-02-07T17:09:51.206Z,9.70
2018-02-07T17:12:26.446Z,10.70
2018-02-07T17:15:01.921Z,13.62
2018-02-07T17:17:36.444Z,12.73
2018-02-07T17:20:11.875Z,23.80
2018-02-07T17:22:46.971Z,20.87
2018-02-07T17:25:21.937Z,17.43
2018-02-07T17:27:57.283Z,23.23
2018-02-07T17:30:32.143Z,20.27
2018-02-07T17:33:07.371Z,19.47
2018-02-07T17:35:42.986Z,19.25
2018-02-07T17:38:18.051Z,18.50
2018-02-07T17:40:53.330Z,19.50
2018-02-07T17:43:29.062Z,17.30
2018-02-07T17:46:04.357Z,19.77
2018-02-07T17:48:39.453Z,19.80
2018-02-07T17:51:14.556Z,16.37
2018-02-07T17:53:49.464Z,20.60
2018-02-07T17:56:24.904Z,21.83
2018-02-07T17:59:00.136Z,22.43
2018-02-07T18:01:35.408Z,20.47
2018-02-07T18:04:10.819Z,20.63
2018-02-07T18:06:45.590Z,21.13
2018-02-07T18:09:20.225Z,22.47
2018-02-07T18:11:55.377Z,24.37
2018-02-07T18:14:30.612Z,25.50
2018-02-07T18:17:06.422Z,29.48
2018-02-07T18:19:41.300Z,31.43
2018-02-07T18:22:16.494Z,36.63
2018-02-07T18:24:51.678Z,37.70
2018-02-07T18:27:26.402Z,33.07
2018-02-07T18:30:01.423Z,34.60
2018-02-07T18:32:36.681Z,30.37
2018-02-07T18:35:12.158Z,28.77
2018-02-07T18:37:47.276Z,26.03
2018-02-07T18:40:21.747Z,22.30
2018-02-07T18:42:57.227Z,19.87
2018-02-07T18:45:32.242Z,18.30
2018-02-07T18:48:07.613Z,16.60
2018-02-07T18:50:42.695Z,20.43
2018-02-07T18:53:17.799Z,20.37
2018-02-07T18:55:53.257Z,21.85
2018-02-07T18:58:28.379Z,24.17
2018-02-07T19:01:03.630Z,38.77
2018-02-07T19:03:39.143Z,42.42
2018-02-07T19:06:14.275Z,38.67
2018-02-07T19:08:49.658Z,32.43
2018-02-07T19:11:24.731Z,31.33
2018-02-07T19:13:59.431Z,26.50
2018-02-07T19:16:34.446Z,22.53
2018-02-07T19:19:09.587Z,20.53
2018-02-07T19:21:44.622Z,20.30
2018-02-07T19:24:20.258Z,20.05
2018-02-07T19:26:55.619Z,20.70
2018-02-07T19:29:30.834Z,15.63
2018-02-07T19:32:09.085Z,15.23
2018-02-07T19:34:43.670Z,14.23
2018-02-07T19:37:18.883Z,13.90
2018-02-07T19:39:54.573Z,13.62
2018-02-07T19:42:29.798Z,13.93
2018-02-07T19:45:05.090Z,12.48
2018-02-07T19:47:39.562Z,13.13
2018-02-07T19:50:14.786Z,13.13
2018-02-07T19:52:50.382Z,13.48
2018-02-07T19:55:25.601Z,13.73
2018-02-07T19:58:00.978Z,18.40
2018-02-07T20:00:35.951Z,19.07
2018-02-07T20:03:10.407Z,17.50
2018-02-07T20:05:44.997Z,17.20
2018-02-07T20:08:20.813Z,15.57
2018-02-07T20:10:55.834Z,15.27
2018-02-07T20:13:30.526Z,16.43
2018-02-07T20:16:05.430Z,16.00
2018-02-07T20:18:40.531Z,17.70
2018-02-07T20:21:15.513Z,18.80
2018-02-07T20:23:50.898Z,18.33
2018-02-07T20:26:26.132Z,17.17
2018-02-07T20:29:01.514Z,18.15
2018-02-07T20:31:36.673Z,17.63
2018-02-07T20:34:12.011Z,15.23
2018-02-07T20:36:47.596Z,13.52
2018-02-07T20:39:22.761Z,13.93
2018-02-07T20:41:57.903Z,12.23
2018-02-07T20:44:33.222Z,13.77
2018-02-07T20:47:08.073Z,12.43
2018-02-07T20:49:43.398Z,14.45
2018-02-07T20:52:18.033Z,13.47
2018-02-07T20:54:53.150Z,14.20
2018-02-07T20:57:28.322Z,15.60
2018-02-07T21:00:03.054Z,19.53
2018-02-07T21:02:38.137Z,20.98
2018-02-07T21:05:13.028Z,15.30
2018-02-07T21:07:47.978Z,15.20
2018-02-07T21:10:23.242Z,13.27
2018-02-07T21:12:58.074Z,11.47
2018-02-07T21:15:33.354Z,12.53
2018-02-07T21:18:08.898Z,13.20
2018-02-07T21:20:44.001Z,14.77
2018-02-07T21:23:19.198Z,14.80
2018-02-07T21:25:54.416Z,13.60
2018-02-07T21:28:29.722Z,14.25
2018-02-07T21:31:04.676Z,12.97
2018-02-07T21:33:40.019Z,14.50
2018-02-07T21:36:15.290Z,12.10
2018-02-07T21:38:50.722Z,14.20
2018-02-07T21:41:25.793Z,12.50
2018-02-07T21:44:00.759Z,13.30
2018-02-07T21:46:35.279Z,13.83
2018-02-07T21:49:10.182Z,15.50
2018-02-07T21:51:45.078Z,17.20
2018-02-07T21:54:19.510Z,16.77
2018-02-07T21:56:54.030Z,18.00
2018-02-07T21:59:29.182Z,16.57
2018-02-07T22:02:04.510Z,15.77
2018-02-07T22:04:39.542Z,14.67
2018-02-07T22:07:14.066Z,15.13
2018-02-07T22:09:49.309Z,15.03
2018-02-07T22:12:23.921Z,15.00
2018-02-07T22:14:59.259Z,13.60
2018-02-07T22:17:33.838Z,13.90
2018-02-07T22:20:08.475Z,14.13
2018-02-07T22:22:43.189Z,13.50
2018-02-07T22:25:18.502Z,12.97
2018-02-07T22:27:52.969Z,15.90
2018-02-07T22:30:27.830Z,13.87
2018-02-07T22:33:02.906Z,13.10
2018-02-07T22:35:38.233Z,13.10
2018-02-07T22:38:12.830Z,14.00
2018-02-07T22:40:47.801Z,12.00
2018-02-07T22:43:23.244Z,13.63
2018-02-07T22:45:58.322Z,13.60
2018-02-07T22:48:32.990Z,14.33
2018-02-07T22:51:08.234Z,13.00
2018-02-07T22:53:43.254Z,12.17
2018-02-07T22:56:18.562Z,13.20
2018-02-07T22:58:52.936Z,11.70
2018-02-07T23:01:27.376Z,13.40
2018-02-07T23:04:02.582Z,13.43
2018-02-07T23:06:37.343Z,14.70
2018-02-07T23:09:12.272Z,13.40
2018-02-07T23:11:47.249Z,12.60
2018-02-07T23:14:22.350Z,11.13
2018-02-07T23:16:57.633Z,12.27
2018-02-07T23:19:32.659Z,12.80
2018-02-07T23:22:07.013Z,11.57
2018-02-07T23:24:41.982Z,10.97
2018-02-07T23:27:16.427Z,13.93
2018-02-07T23:29:51.090Z,12.97
2018-02-07T23:32:25.529Z,13.10
2018-02-07T23:35:00.793Z,12.77
2018-02-07T23:37:35.738Z,12.10
2018-02-07T23:40:10.455Z,13.20
2018-02-07T23:42:45.728Z,13.57
2018-02-07T23:45:20.566Z,12.27
2018-02-07T23:47:55.273Z,12.57
2018-02-07T23:50:30.239Z,12.63
2018-02-07T23:53:04.717Z,12.07
2018-02-07T23:55:39.322Z,12.87
2018-02-07T23:58:13.985Z,13.25
